Time;durP1;ratioP1;P1;durP2;ratioP2;P2;SDS_P1;SDS_P2;PMS_P1;PMS_P2;Temp;Humidity;BMP_temperature;BMP_pressure;BME280_temperature;BME280_humidity;BME280_pressure;Samples;Min_cycle;Max_cycle;Signal;HPM_P1;HPM_P2
2021/12/02 00:00:46;;;;;;;8.50;1.40;;;3.10;99.90;;;;;;5075427;28;20466;-78
2021/12/02 00:03:12;;;;;;;5.80;1.50;;;3.10;99.90;;;;;;5076279;28;20052;-82
2021/12/02 00:05:38;;;;;;;1.90;0.95;;;3.20;99.90;;;;;;5075167;28;20084;-80
2021/12/02 00:08:04;;;;;;;7.13;1.17;;;3.20;99.90;;;;;;5076141;28;20087;-83
2021/12/02 00:10:31;;;;;;;4.65;0.80;;;3.20;99.90;;;;;;5075076;28;20439;-83
2021/12/02 00:13:02;;;;;;;5.50;1.27;;;3.10;99.90;;;;;;5075116;28;20049;-81
2021/12/02 00:21:07;;;;;;;2.30;1.30;;;3.00;99.90;;;;;;5074810;28;20052;-82
2021/12/02 00:23:57;;;;;;;3.35;1.10;;;3.00;99.90;;;;;;5074655;28;20059;-82
2021/12/02 00:26:23;;;;;;;9.30;1.15;;;3.00;99.90;;;;;;5075802;28;20048;-82
2021/12/02 00:28:55;;;;;;;2.42;0.90;;;3.00;99.90;;;;;;5058733;28;20050;-80
2021/12/02 00:31:24;;;;;;;4.70;1.30;;;3.00;99.90;;;;;;5074836;28;20135;-79
2021/12/02 00:33:53;;;;;;;9.82;3.30;;;2.90;99.90;;;;;;5074859;28;20461;-84
2021/12/02 00:36:21;;;;;;;4.97;1.10;;;2.90;99.90;;;;;;5075721;28;20040;-81
2021/12/02 00:38:47;;;;;;;3.30;1.00;;;2.80;99.90;;;;;;5074454;28;20049;-80
2021/12/02 00:41:19;;;;;;;3.42;0.82;;;2.80;99.90;;;;;;5058691;28;20056;-81
2021/12/02 00:43:46;;;;;;;5.68;1.70;;;2.80;99.90;;;;;;5074849;28;20052;-82
2021/12/02 00:46:17;;;;;;;3.38;0.93;;;2.80;99.90;;;;;;5076384;28;20053;-81
2021/12/02 00:48:43;;;;;;;8.23;1.80;;;2.80;99.90;;;;;;5075801;28;20475;-79
2021/12/02 00:51:11;;;;;;;6.50;1.10;;;2.70;99.90;;;;;;5076029;28;20044;-79
2021/12/02 00:53:42;;;;;;;4.78;1.13;;;2.70;99.90;;;;;;5073941;28;20053;-80
2021/12/02 00:56:10;;;;;;;3.08;1.17;;;2.70;99.90;;;;;;5075455;28;20126;-80
2021/12/02 00:58:37;;;;;;;4.93;1.15;;;2.70;99.90;;;;;;5075906;28;20128;-81
2021/12/02 01:01:03;;;;;;;4.13;1.15;;;2.70;99.90;;;;;;5073826;28;20048;-82
2021/12/02 01:03:34;;;;;;;6.10;1.20;;;2.60;99.90;;;;;;5075260;28;20123;-79
2021/12/02 01:06:01;;;;;;;1.95;0.82;;;2.60;99.90;;;;;;5074555;28;20393;-82
2021/12/02 01:08:28;;;;;;;3.13;0.85;;;2.60;99.90;;;;;;5074730;28;20052;-81
2021/12/02 01:10:54;;;;;;;6.70;1.00;;;2.60;99.90;;;;;;5074047;28;20135;-83
2021/12/02 01:13:21;;;;;;;3.65;1.05;;;2.60;99.90;;;;;;5074593;28;20105;-81
2021/12/02 01:15:47;;;;;;;3.00;0.95;;;2.60;99.90;;;;;;5073614;28;20051;-80
2021/12/02 01:18:14;;;;;;;6.07;1.42;;;2.50;99.90;;;;;;5075465;28;20051;-82
2021/12/02 01:20:42;;;;;;;3.92;1.23;;;2.50;99.90;;;;;;5074834;28;20048;-83
2021/12/02 01:23:09;;;;;;;3.47;0.90;;;2.50;99.90;;;;;;5075127;28;20504;-85
2021/12/02 01:25:36;;;;;;;4.97;1.17;;;2.50;99.90;;;;;;5057182;28;20083;-84
2021/12/02 01:28:03;;;;;;;3.70;0.85;;;2.60;99.90;;;;;;5074644;28;20048;-81
2021/12/02 01:30:31;;;;;;;4.75;0.98;;;2.60;99.90;;;;;;5074620;28;20055;-81
2021/12/02 01:33:04;;;;;;;4.95;0.80;;;2.60;99.90;;;;;;5074311;28;20047;-84
2021/12/02 01:35:32;;;;;;;7.60;1.40;;;2.60;99.90;;;;;;5074010;28;20049;-81
2021/12/02 01:37:58;;;;;;;4.07;1.65;;;2.70;99.90;;;;;;5073458;28;20053;-81
2021/12/02 01:40:25;;;;;;;3.30;0.98;;;2.70;99.90;;;;;;5074465;28;20067;-84
2021/12/02 01:42:56;;;;;;;2.78;1.00;;;2.70;99.90;;;;;;5074937;28;20056;-84
2021/12/02 01:45:27;;;;;;;7.57;1.58;;;2.70;99.90;;;;;;5074904;28;20052;-79
2021/12/02 01:47:54;;;;;;;2.95;0.80;;;2.70;99.90;;;;;;5074373;28;20090;-81
2021/12/02 01:50:23;;;;;;;3.13;1.35;;;2.60;99.90;;;;;;5073518;28;20084;-82
2021/12/02 01:52:55;;;;;;;3.58;1.13;;;2.60;99.90;;;;;;5072750;28;20052;-84
2021/12/02 01:55:21;;;;;;;4.93;0.95;;;2.70;99.90;;;;;;5074601;28;20129;-82
2021/12/02 01:57:59;;;;;;;3.28;1.05;;;2.70;99.90;;;;;;5074120;28;20045;-84
2021/12/02 02:00:28;;;;;;;6.45;0.93;;;2.70;99.90;;;;;;5073452;28;20052;-84
2021/12/02 02:02:54;;;;;;;5.10;0.75;;;2.70;99.90;;;;;;5073741;28;20461;-84
2021/12/02 02:05:20;;;;;;;4.32;0.82;;;2.80;99.90;;;;;;5072959;28;20045;-81
2021/12/02 02:08:06;;;;;;;5.82;1.10;;;2.80;99.90;;;;;;5072809;28;20451;-81
2021/12/02 02:10:36;;;;;;;5.20;1.13;;;2.80;99.90;;;;;;5073714;28;20490;-83
2021/12/02 02:13:08;;;;;;;3.38;1.08;;;2.80;99.90;;;;;;5073596;28;20049;-85
2021/12/02 02:15:35;;;;;;;4.95;1.40;;;2.80;99.90;;;;;;5073710;28;20041;-86
2021/12/02 02:21:00;;;;;;;2.38;0.73;;;2.80;99.90;;;;;;5073266;28;20115;-85
2021/12/02 02:23:29;;;;;;;4.22;0.90;;;2.80;99.90;;;;;;5073726;28;20044;-81
2021/12/02 02:25:56;;;;;;;3.63;0.80;;;2.80;99.90;;;;;;5073736;28;20052;-83
2021/12/02 02:28:22;;;;;;;5.00;0.80;;;2.70;99.90;;;;;;5055573;28;20080;-84
2021/12/02 02:30:48;;;;;;;3.88;0.73;;;2.70;99.90;;;;;;5073011;28;20091;-85
2021/12/02 02:33:17;;;;;;;4.65;0.70;;;3.00;99.90;;;;;;5073617;28;20048;-82
2021/12/02 02:35:43;;;;;;;2.65;0.82;;;2.60;99.90;;;;;;5072434;28;20058;-81
2021/12/02 02:38:10;;;;;;;3.13;0.63;;;2.60;99.90;;;;;;5072522;28;20054;-89
2021/12/02 02:40:41;;;;;;;2.45;0.80;;;2.50;99.90;;;;;;5073297;28;20052;-86
2021/12/02 02:43:09;;;;;;;5.03;0.80;;;2.50;99.90;;;;;;5057370;28;20113;-80
2021/12/02 02:45:37;;;;;;;2.45;0.80;;;2.40;99.90;;;;;;5072416;28;20048;-83
2021/12/02 02:48:04;;;;;;;3.85;0.80;;;2.40;99.90;;;;;;5072419;28;20166;-84
2021/12/02 02:50:31;;;;;;;1.35;0.60;;;2.30;99.90;;;;;;5074149;28;20078;-82
2021/12/02 02:53:09;;;;;;;4.38;1.00;;;2.20;99.90;;;;;;5073290;28;20084;-82
2021/12/02 02:55:36;;;;;;;1.95;0.60;;;2.20;99.90;;;;;;5073989;28;20214;-86
2021/12/02 03:00:37;;;;;;;2.17;0.80;;;2.20;99.90;;;;;;5073677;28;20052;-84
2021/12/02 03:03:25;;;;;;;2.58;0.65;;;2.20;99.90;;;;;;5072368;28;20052;-85
2021/12/02 03:06:25;;;;;;;3.60;1.30;;;2.20;99.90;;;;;;5073751;28;20063;-82
2021/12/02 03:09:04;;;;;;;1.33;0.77;;;2.20;99.90;;;;;;5072916;28;20049;-82
2021/12/02 03:11:39;;;;;;;2.80;0.75;;;2.10;99.90;;;;;;5073100;28;20432;-83
2021/12/02 03:14:11;;;;;;;3.45;1.08;;;2.10;99.90;;;;;;5071929;28;20045;-80
2021/12/02 03:19:04;;;;;;;3.25;0.75;;;2.10;99.90;;;;;;5072454;28;20072;-81
2021/12/02 03:21:30;;;;;;;2.22;0.50;;;2.10;99.90;;;;;;5073101;28;20044;-80
2021/12/02 03:24:01;;;;;;;1.90;0.60;;;2.10;99.90;;;;;;5072949;28;20072;-78
2021/12/02 03:26:28;;;;;;;1.90;0.70;;;2.10;99.90;;;;;;5072420;28;20052;-83
2021/12/02 03:28:54;;;;;;;3.83;0.70;;;2.90;99.90;;;;;;5072983;28;20041;-80
2021/12/02 03:31:21;;;;;;;3.35;0.60;;;2.10;99.90;;;;;;5072831;28;20045;-80
2021/12/02 03:33:47;;;;;;;4.00;0.80;;;2.20;99.90;;;;;;5073103;28;20091;-80
2021/12/02 03:36:15;;;;;;;2.83;0.63;;;2.00;99.90;;;;;;5071790;28;20509;-79
2021/12/02 03:38:40;;;;;;;1.88;0.60;;;2.70;99.90;;;;;;5072962;28;20049;-81
2021/12/02 03:41:06;;;;;;;2.97;0.70;;;1.90;99.90;;;;;;5072959;28;20097;-82
2021/12/02 03:43:40;;;;;;;1.90;0.55;;;2.20;99.90;;;;;;5073005;28;20055;-80
2021/12/02 03:46:07;;;;;;;3.03;0.70;;;1.80;99.90;;;;;;5072846;28;20087;-81
2021/12/02 03:48:36;;;;;;;0.85;0.52;;;1.80;99.90;;;;;;5071772;28;20119;-80
2021/12/02 03:51:06;;;;;;;2.38;0.60;;;1.90;99.90;;;;;;5073403;28;20084;-80
2021/12/02 03:53:31;;;;;;;1.90;0.55;;;1.70;99.90;;;;;;5071587;28;20048;-80
2021/12/02 03:55:57;;;;;;;1.63;0.55;;;2.70;99.90;;;;;;5072899;28;20053;-79
2021/12/02 03:58:23;;;;;;;1.00;0.88;;;1.70;99.90;;;;;;5075223;28;20113;-79
2021/12/02 04:00:49;;;;;;;2.72;0.60;;;1.60;99.90;;;;;;5076903;28;20067;-78
2021/12/02 04:03:14;;;;;;;1.30;0.60;;;1.60;99.90;;;;;;5075362;28;20094;-80
2021/12/02 04:05:40;;;;;;;3.33;0.60;;;1.50;99.90;;;;;;5076289;28;20052;-80
2021/12/02 04:08:06;;;;;;;2.95;0.60;;;2.20;99.90;;;;;;5075100;28;20041;-80
2021/12/02 04:10:33;;;;;;;2.80;0.60;;;2.50;99.90;;;;;;5076796;28;20052;-80
2021/12/02 04:16:01;;;;;;;1.77;0.60;;;1.50;99.90;;;;;;5066366;28;20457;-82
2021/12/02 04:18:27;;;;;;;2.15;0.63;;;2.30;99.90;;;;;;5059317;28;20105;-82
2021/12/02 04:20:52;;;;;;;2.10;0.60;;;1.60;99.90;;;;;;5076093;28;20041;-80
2021/12/02 04:23:18;;;;;;;1.83;0.50;;;1.60;99.90;;;;;;5074953;28;20055;-79
2021/12/02 04:25:44;;;;;;;2.60;0.50;;;2.10;99.90;;;;;;5075681;28;20188;-81
2021/12/02 04:28:10;;;;;;;1.90;0.98;;;2.40;99.90;;;;;;5058467;28;20051;-85
2021/12/02 04:30:35;;;;;;;0.95;0.60;;;1.60;99.90;;;;;;5075879;28;20045;-83
2021/12/02 04:33:01;;;;;;;2.17;0.50;;;2.10;99.90;;;;;;5075215;28;20381;-81
2021/12/02 04:35:27;;;;;;;2.15;0.60;;;2.00;99.90;;;;;;5058145;28;20052;-82
2021/12/02 04:37:52;;;;;;;2.17;0.70;;;1.50;99.90;;;;;;5076555;28;20056;-85
2021/12/02 04:40:21;;;;;;;1.15;0.52;;;2.40;99.90;;;;;;5074446;28;20099;-82
2021/12/02 04:42:48;;;;;;;2.15;0.70;;;1.50;99.90;;;;;;5076172;28;20037;-81
2021/12/02 04:45:15;;;;;;;2.20;0.63;;;1.50;99.90;;;;;;5075532;28;20040;-83
2021/12/02 04:47:41;;;;;;;4.82;0.75;;;2.10;99.90;;;;;;5075490;28;20033;-83
2021/12/02 04:50:08;;;;;;;2.97;0.70;;;1.40;99.90;;;;;;5075846;28;20051;-83
2021/12/02 04:52:35;;;;;;;6.00;0.90;;;1.40;99.90;;;;;;5074434;28;20496;-85
2021/12/02 04:55:01;;;;;;;4.47;1.05;;;1.40;99.90;;;;;;5073769;28;20497;-83
2021/12/02 04:57:27;;;;;;;2.35;0.70;;;1.40;99.90;;;;;;5075676;28;20131;-82
2021/12/02 04:59:52;;;;;;;1.83;0.70;;;1.40;99.90;;;;;;5075381;28;20563;-84
2021/12/02 05:02:18;;;;;;;5.55;0.90;;;2.10;99.90;;;;;;5075298;28;20087;-83
2021/12/02 05:04:44;;;;;;;2.22;0.70;;;1.40;99.90;;;;;;5075253;28;20469;-82
2021/12/02 05:07:10;;;;;;;2.20;1.23;;;1.40;99.90;;;;;;5075151;28;20044;-83
2021/12/02 05:09:35;;;;;;;3.47;0.80;;;1.60;99.90;;;;;;5074944;28;20044;-83
2021/12/02 05:12:01;;;;;;;2.10;0.70;;;2.30;99.90;;;;;;5074086;28;20044;-84
2021/12/02 05:14:27;;;;;;;2.38;0.90;;;1.30;99.90;;;;;;5073758;28;20045;-82
2021/12/02 05:16:52;;;;;;;1.83;0.80;;;1.30;99.90;;;;;;5075247;28;20048;-82
2021/12/02 05:19:18;;;;;;;3.25;0.80;;;1.30;99.90;;;;;;5075127;28;20542;-82
2021/12/02 05:21:44;;;;;;;2.72;0.98;;;1.20;99.90;;;;;;5074765;28;20045;-82
2021/12/02 05:24:10;;;;;;;6.88;1.48;;;1.70;99.90;;;;;;5074809;28;20049;-82
2021/12/02 05:26:36;;;;;;;2.67;0.80;;;1.20;99.90;;;;;;5074636;28;20048;-81
2021/12/02 05:29:02;;;;;;;2.33;0.80;;;1.20;99.90;;;;;;5073474;28;20538;-82
2021/12/02 05:31:28;;;;;;;2.40;0.88;;;1.70;99.90;;;;;;5073522;28;20127;-84
2021/12/02 05:33:53;;;;;;;2.20;0.80;;;1.10;99.90;;;;;;5074690;28;20186;-82
2021/12/02 05:36:19;;;;;;;1.42;0.63;;;1.10;99.90;;;;;;5074686;28;20044;-84
2021/12/02 05:38:45;;;;;;;1.50;0.70;;;1.10;99.90;;;;;;5074572;28;20037;-84
2021/12/02 05:41:14;;;;;;;1.25;0.55;;;1.10;99.90;;;;;;5074998;28;20048;-83
2021/12/02 05:43:40;;;;;;;5.15;0.85;;;1.10;99.90;;;;;;5073469;28;20091;-85
2021/12/02 05:46:06;;;;;;;2.35;0.70;;;1.10;99.90;;;;;;5073331;28;20040;-83
2021/12/02 05:48:32;;;;;;;4.95;0.75;;;1.10;99.90;;;;;;5074258;28;20045;-84
2021/12/02 05:50:58;;;;;;;1.40;0.60;;;1.10;99.90;;;;;;5073134;28;20098;-84
2021/12/02 05:53:24;;;;;;;2.50;0.70;;;1.20;99.90;;;;;;5073120;28;20084;-80
2021/12/02 05:55:49;;;;;;;3.03;0.68;;;1.20;99.90;;;;;;5074840;28;20155;-82
2021/12/02 05:58:15;;;;;;;2.58;0.90;;;1.30;99.90;;;;;;5074417;28;20044;-81
2021/12/02 06:00:42;;;;;;;1.52;0.70;;;2.00;99.90;;;;;;5074937;28;20461;-82
2021/12/02 06:03:08;;;;;;;4.35;1.20;;;2.40;99.90;;;;;;5074226;28;20119;-82
2021/12/02 06:05:34;;;;;;;1.60;0.70;;;1.80;99.90;;;;;;5057298;28;20480;-84
2021/12/02 06:08:02;;;;;;;4.82;0.95;;;1.90;99.90;;;;;;5072763;28;20036;-81
2021/12/02 06:10:29;;;;;;;2.88;0.77;;;1.30;99.90;;;;;;5073004;28;20479;-81
2021/12/02 06:12:56;;;;;;;5.15;0.80;;;1.30;99.90;;;;;;5074431;28;20400;-80
2021/12/02 06:15:21;;;;;;;2.65;0.75;;;2.50;99.90;;;;;;5073828;28;20044;-81
2021/12/02 06:17:47;;;;;;;4.13;0.85;;;2.10;99.90;;;;;;5074395;28;20512;-79
2021/12/02 06:20:15;;;;;;;2.60;0.80;;;1.30;99.90;;;;;;5073247;28;20094;-82
2021/12/02 06:22:41;;;;;;;4.25;0.80;;;1.30;99.90;;;;;;5072908;28;20049;-81
2021/12/02 06:27:40;;;;;;;4.45;0.88;;;1.30;99.90;;;;;;5073917;28;20503;-83
2021/12/02 06:30:07;;;;;;;2.70;0.80;;;1.30;99.90;;;;;;5072396;28;20131;-79
2021/12/02 06:32:32;;;;;;;3.20;0.80;;;1.30;99.90;;;;;;5073669;28;20562;-81
2021/12/02 06:34:58;;;;;;;2.25;0.60;;;1.30;99.90;;;;;;5073557;28;20044;-80
2021/12/02 06:37:24;;;;;;;4.03;1.02;;;1.20;99.90;;;;;;5073619;28;20097;-81
2021/12/02 06:39:50;;;;;;;2.70;0.88;;;1.30;99.90;;;;;;5073001;28;20044;-81
2021/12/02 06:42:16;;;;;;;4.55;0.93;;;1.20;99.90;;;;;;5073531;28;20045;-81
2021/12/02 06:44:42;;;;;;;4.18;0.90;;;1.20;99.90;;;;;;5056128;28;20483;-83
2021/12/02 06:47:08;;;;;;;2.35;0.90;;;1.50;99.90;;;;;;5072630;28;20075;-84
2021/12/02 06:49:34;;;;;;;2.42;0.77;;;1.30;99.90;;;;;;5072190;28;20048;-81
2021/12/02 06:52:01;;;;;;;4.50;1.02;;;1.30;99.90;;;;;;5073091;28;20612;-81
2021/12/02 06:54:27;;;;;;;1.88;0.57;;;2.00;99.90;;;;;;5072909;28;20057;-79
2021/12/02 06:56:53;;;;;;;1.48;0.80;;;1.40;99.90;;;;;;5073467;28;20078;-79
2021/12/02 06:59:19;;;;;;;1.65;0.98;;;1.40;99.90;;;;;;5073383;28;20440;-82
2021/12/02 07:01:46;;;;;;;1.55;0.60;;;1.60;99.90;;;;;;5072354;28;20098;-80
2021/12/02 07:04:12;;;;;;;2.08;0.82;;;1.40;99.90;;;;;;5073407;28;20110;-80
2021/12/02 07:06:39;;;;;;;2.10;0.70;;;1.70;99.90;;;;;;5073296;28;20044;-79
2021/12/02 07:09:06;;;;;;;2.42;0.70;;;1.40;99.90;;;;;;5071959;28;20594;-78
2021/12/02 07:11:33;;;;;;;2.10;0.63;;;1.40;99.90;;;;;;5072303;28;20052;-78
2021/12/02 07:14:05;;;;;;;2.60;0.88;;;1.40;99.90;;;;;;5073971;28;20096;-79
2021/12/02 07:16:32;;;;;;;3.53;0.80;;;1.40;99.90;;;;;;5073295;28;20047;-76
2021/12/02 07:18:59;;;;;;;1.85;0.90;;;1.40;99.90;;;;;;5072159;28;20511;-75
2021/12/02 07:21:25;;;;;;;3.08;1.15;;;1.40;99.90;;;;;;5072112;28;20060;-75
2021/12/02 07:23:51;;;;;;;4.10;1.13;;;1.40;99.90;;;;;;5073123;28;20044;-75
2021/12/02 07:26:17;;;;;;;3.53;1.10;;;1.40;99.90;;;;;;5073689;28;20055;-75
2021/12/02 07:28:47;;;;;;;5.30;1.70;;;1.40;99.90;;;;;;5071791;28;20052;-75
2021/12/02 07:31:13;;;;;;;2.10;1.08;;;1.40;99.90;;;;;;5073540;28;20478;-75
2021/12/02 07:33:48;;;;;;;2.13;1.00;;;1.40;99.90;;;;;;5076924;28;20386;-74
2021/12/02 07:36:14;;;;;;;2.30;0.90;;;1.60;99.90;;;;;;5076825;28;20049;-77
2021/12/02 07:38:40;;;;;;;3.05;1.02;;;2.40;99.90;;;;;;5077534;28;20131;-76
2021/12/02 07:41:05;;;;;;;2.75;1.05;;;1.40;99.90;;;;;;5075618;28;20534;-76
2021/12/02 07:43:38;;;;;;;2.55;0.98;;;1.40;99.90;;;;;;5075520;28;20393;-76
2021/12/02 07:46:05;;;;;;;2.17;1.23;;;2.20;99.90;;;;;;5076653;28;20044;-75
2021/12/02 07:48:30;;;;;;;5.22;1.42;;;2.00;99.90;;;;;;5075432;28;20055;-76
2021/12/02 07:51:00;;;;;;;2.72;1.10;;;1.40;99.90;;;;;;5076479;28;20400;-76
2021/12/02 07:53:27;;;;;;;2.38;1.25;;;1.90;99.90;;;;;;5076815;28;20086;-76
2021/12/02 07:55:55;;;;;;;1.70;0.98;;;1.70;99.90;;;;;;5058842;28;20061;-76
2021/12/02 07:58:22;;;;;;;3.55;1.23;;;1.50;99.90;;;;;;5076525;28;20044;-75
2021/12/02 08:00:49;;;;;;;2.72;1.00;;;1.60;99.90;;;;;;5076509;28;20095;-77
2021/12/02 08:03:15;;;;;;;4.18;1.20;;;1.70;99.90;;;;;;5075241;28;20136;-76
2021/12/02 08:05:42;;;;;;;2.75;1.00;;;1.40;99.90;;;;;;5076475;28;20053;-76
2021/12/02 08:08:08;;;;;;;2.40;1.10;;;1.40;99.90;;;;;;5075904;28;20045;-77
2021/12/02 08:10:34;;;;;;;2.33;1.00;;;1.80;99.90;;;;;;5075346;28;20118;-76
2021/12/02 08:13:02;;;;;;;2.25;0.77;;;1.40;99.90;;;;;;5076232;28;20066;-76
2021/12/02 08:15:30;;;;;;;2.22;1.10;;;1.40;99.90;;;;;;5075044;28;20489;-76
2021/12/02 08:17:56;;;;;;;2.63;1.08;;;1.60;99.90;;;;;;5075695;28;20506;-76
2021/12/02 08:20:24;;;;;;;2.67;1.20;;;1.50;99.90;;;;;;5075482;28;20497;-87
2021/12/02 08:22:50;;;;;;;3.03;1.27;;;1.50;99.90;;;;;;5076837;28;20048;-84
2021/12/02 08:25:17;;;;;;;2.17;1.20;;;1.50;99.90;;;;;;5076082;28;20173;-86
2021/12/02 08:27:42;;;;;;;3.10;1.23;;;1.60;99.90;;;;;;5074697;28;20045;-86
2021/12/02 08:30:11;;;;;;;2.28;1.15;;;1.80;99.90;;;;;;5058493;28;20429;-85
2021/12/02 08:32:40;;;;;;;4.20;1.30;;;1.70;99.90;;;;;;5076032;28;20049;-86
2021/12/02 08:35:06;;;;;;;3.85;1.20;;;1.70;99.90;;;;;;5074995;28;20056;-84
2021/12/02 08:37:34;;;;;;;5.45;1.50;;;1.70;99.90;;;;;;5075967;28;20036;-87
2021/12/02 08:40:01;;;;;;;2.53;1.00;;;2.50;99.90;;;;;;5076473;28;20053;-88
2021/12/02 08:42:27;;;;;;;3.20;1.90;;;1.70;99.90;;;;;;5075409;28;20036;-87
2021/12/02 08:44:54;;;;;;;4.50;1.35;;;1.70;99.90;;;;;;5074165;28;20078;-89
2021/12/02 08:47:22;;;;;;;2.67;1.23;;;1.90;99.90;;;;;;5075633;28;20048;-87
2021/12/02 08:49:52;;;;;;;4.78;2.00;;;2.60;99.90;;;;;;5074648;28;20366;-86
2021/12/02 08:52:22;;;;;;;3.08;1.35;;;2.00;99.90;;;;;;5074802;28;20067;-87
2021/12/02 08:54:50;;;;;;;2.08;1.02;;;1.90;99.90;;;;;;5075914;28;20052;-88
2021/12/02 08:57:18;;;;;;;4.05;1.30;;;2.80;99.90;;;;;;5074738;28;20105;-88
2021/12/02 08:59:44;;;;;;;4.85;1.30;;;1.90;99.90;;;;;;5074662;28;20497;-89
2021/12/02 09:02:11;;;;;;;3.67;1.73;;;1.90;99.90;;;;;;5074416;28;20067;-85
2021/12/02 09:04:38;;;;;;;4.50;1.60;;;2.00;99.90;;;;;;5075423;28;20060;-85
2021/12/02 09:07:04;;;;;;;2.63;1.15;;;1.90;99.90;;;;;;5057680;28;20056;-82
2021/12/02 09:09:30;;;;;;;3.20;1.50;;;1.90;99.90;;;;;;5075939;28;20052;-87
2021/12/02 09:11:57;;;;;;;3.20;1.58;;;2.30;99.90;;;;;;5074452;28;20501;-86
2021/12/02 09:14:23;;;;;;;3.80;1.40;;;1.90;99.90;;;;;;5073916;28;20064;-87
2021/12/02 09:16:51;;;;;;;2.90;1.60;;;1.80;99.90;;;;;;5074921;28;20051;-87
2021/12/02 09:19:17;;;;;;;3.13;1.55;;;2.50;99.90;;;;;;5074424;28;20056;-86
2021/12/02 09:21:44;;;;;;;3.00;1.50;;;1.80;99.90;;;;;;5075561;28;20078;-82
2021/12/02 09:24:11;;;;;;;3.05;1.60;;;1.80;99.90;;;;;;5074856;28;20465;-87
2021/12/02 09:26:38;;;;;;;3.25;1.60;;;1.80;99.90;;;;;;5057333;28;20048;-84
2021/12/02 09:29:05;;;;;;;2.53;1.38;;;2.10;99.90;;;;;;5074837;28;20044;-84
2021/12/02 09:31:31;;;;;;;3.30;1.58;;;2.80;99.90;;;;;;5073359;28;20098;-75
2021/12/02 09:33:57;;;;;;;2.85;1.50;;;1.80;99.90;;;;;;5057645;28;20059;-75
2021/12/02 09:36:24;;;;;;;2.45;1.63;;;1.90;99.90;;;;;;5074453;28;20054;-75
2021/12/02 09:38:50;;;;;;;3.60;1.70;;;1.90;99.90;;;;;;5074490;28;20040;-76
2021/12/02 09:41:15;;;;;;;3.20;1.38;;;2.00;99.90;;;;;;5074761;28;20045;-76
2021/12/02 09:43:42;;;;;;;3.78;1.83;;;2.00;99.90;;;;;;5074870;28;20048;-74
2021/12/02 09:46:09;;;;;;;2.75;1.30;;;2.00;99.90;;;;;;5074109;28;20102;-77
2021/12/02 09:48:36;;;;;;;4.55;1.60;;;3.30;99.90;;;;;;5073016;28;20040;-76
2021/12/02 09:51:11;;;;;;;3.08;1.52;;;2.70;99.90;;;;;;5074198;28;20059;-76
2021/12/02 09:53:52;;;;;;;3.33;1.30;;;2.30;99.90;;;;;;5072858;28;20102;-75
2021/12/02 09:56:23;;;;;;;3.35;1.70;;;2.80;99.90;;;;;;5073116;28;20074;-75
2021/12/02 09:58:52;;;;;;;2.75;1.30;;;2.90;99.90;;;;;;5074481;28;20131;-75
2021/12/02 10:01:20;;;;;;;3.25;1.10;;;3.30;99.90;;;;;;5073274;28;20477;-77
2021/12/02 10:03:50;;;;;;;2.33;1.10;;;3.70;99.90;;;;;;5073933;28;20051;-77
2021/12/02 10:06:27;;;;;;;4.35;1.10;;;4.10;99.90;;;;;;5074568;28;20118;-75
2021/12/02 10:09:05;;;;;;;3.08;1.13;;;4.00;99.90;;;;;;5072977;28;20101;-75
2021/12/02 10:12:00;;;;;;;2.10;1.00;;;3.80;99.90;;;;;;5073152;28;20057;-77
2021/12/02 10:14:42;;;;;;;2.65;1.10;;;3.70;99.90;;;;;;5072862;28;20550;-74
2021/12/02 10:17:21;;;;;;;1.70;0.90;;;3.50;99.90;;;;;;5072544;28;20048;-74
2021/12/02 10:20:00;;;;;;;3.38;1.20;;;3.50;99.90;;;;;;5055735;28;20044;-73
2021/12/02 10:22:27;;;;;;;2.33;1.15;;;3.50;99.90;;;;;;5072407;28;20132;-74
2021/12/02 10:24:53;;;;;;;1.77;0.90;;;3.60;99.90;;;;;;5073495;28;20055;-73
2021/12/02 10:27:18;;;;;;;4.93;1.38;;;3.90;99.90;;;;;;5073604;28;20115;-73
2021/12/02 10:29:47;;;;;;;2.47;1.15;;;3.80;99.90;;;;;;5073519;28;20056;-74
2021/12/02 10:32:22;;;;;;;1.88;1.20;;;3.80;99.90;;;;;;5073499;28;20049;-74
2021/12/02 10:34:54;;;;;;;1.60;0.90;;;3.70;99.90;;;;;;5073803;28;20055;-73
2021/12/02 10:37:24;;;;;;;2.58;1.08;;;3.50;99.90;;;;;;5072450;28;20083;-73
2021/12/02 10:39:55;;;;;;;1.88;0.98;;;3.60;99.90;;;;;;5073424;28;20106;-74
2021/12/02 10:42:23;;;;;;;3.65;1.00;;;3.70;99.90;;;;;;5073301;28;20378;-73
2021/12/02 10:44:49;;;;;;;1.70;1.00;;;3.80;99.90;;;;;;5073622;28;20045;-73
2021/12/02 10:47:19;;;;;;;4.10;1.20;;;4.20;99.90;;;;;;5072345;28;20044;-73
2021/12/02 10:49:52;;;;;;;2.55;1.35;;;4.70;99.90;;;;;;5073768;28;20076;-74
2021/12/02 10:52:23;;;;;;;1.58;0.73;;;4.70;99.90;;;;;;5073739;28;20052;-74
2021/12/02 10:54:57;;;;;;;2.35;1.10;;;4.30;99.90;;;;;;5073468;28;20096;-74
2021/12/02 10:57:25;;;;;;;6.00;1.00;;;4.30;99.90;;;;;;5073388;28;20063;-75
2021/12/02 10:59:56;;;;;;;2.85;1.20;;;4.60;99.90;;;;;;5073453;28;20392;-74
2021/12/02 11:02:38;;;;;;;3.78;1.48;;;4.00;99.90;;;;;;5055247;28;20056;-75
2021/12/02 11:05:05;;;;;;;3.60;1.58;;;3.80;99.90;;;;;;5073850;28;20366;-74
2021/12/02 11:07:34;;;;;;;6.45;2.40;;;3.70;99.90;;;;;;5076607;28;20098;-75
2021/12/02 11:10:12;;;;;;;2.80;1.70;;;3.50;99.90;;;;;;5077111;28;20048;-75
2021/12/02 11:12:41;;;;;;;2.97;1.70;;;3.40;99.90;;;;;;5059606;28;20052;-75
2021/12/02 11:15:16;;;;;;;2.97;1.75;;;3.30;99.90;;;;;;5077222;28;20037;-75
2021/12/02 11:17:42;;;;;;;2.78;1.70;;;3.30;99.90;;;;;;5076147;28;20515;-75
2021/12/02 11:20:11;;;;;;;3.20;1.23;;;3.10;99.90;;;;;;5075764;28;20053;-75
2021/12/02 11:22:37;;;;;;;1.92;0.75;;;3.10;99.90;;;;;;5077233;28;20048;-87
2021/12/02 11:25:07;;;;;;;2.72;1.10;;;3.00;99.90;;;;;;5076992;28;20040;-86
2021/12/02 11:27:38;;;;;;;5.35;1.00;;;2.90;99.90;;;;;;5076014;28;20075;-87
2021/12/02 11:30:10;;;;;;;2.65;0.70;;;2.90;99.90;;;;;;5077937;28;20056;-90
2021/12/02 11:32:44;;;;;;;2.78;0.85;;;2.90;99.90;;;;;;5075864;28;20131;-81
2021/12/02 11:35:17;;;;;;;2.80;0.75;;;2.90;99.90;;;;;;5075609;28;20516;-83
2021/12/02 11:37:49;;;;;;;2.38;0.80;;;2.90;99.90;;;;;;5076788;28;20084;-85
2021/12/02 11:40:24;;;;;;;1.00;0.50;;;3.10;99.90;;;;;;5075978;28;20059;-82
2021/12/02 11:42:51;;;;;;;1.05;0.52;;;2.90;99.90;;;;;;5075956;28;20049;-82
2021/12/02 11:45:19;;;;;;;1.30;0.60;;;3.30;99.90;;;;;;5075631;28;20515;-80
2021/12/02 11:47:46;;;;;;;1.48;0.50;;;2.90;99.90;;;;;;5077377;28;20123;-85
2021/12/02 11:50:13;;;;;;;1.35;0.60;;;2.90;99.90;;;;;;5075915;28;20052;-81
2021/12/02 11:52:41;;;;;;;1.42;0.68;;;3.10;99.90;;;;;;5077317;28;20358;-80
2021/12/02 11:55:18;;;;;;;2.17;0.60;;;2.90;99.90;;;;;;5075200;28;20088;-82
2021/12/02 11:57:44;;;;;;;2.67;0.75;;;3.00;99.90;;;;;;5076471;28;20131;-81
2021/12/02 12:00:13;;;;;;;3.55;0.98;;;3.10;99.90;;;;;;5076460;28;20102;-84
2021/12/02 12:03:09;;;;;;;1.73;0.60;;;2.70;99.90;;;;;;5076256;28;20052;-89
2021/12/02 12:05:58;;;;;;;1.40;0.50;;;2.70;99.90;;;;;;5070041;28;20540;-83
2021/12/02 12:08:40;;;;;;;2.50;0.77;;;2.70;99.90;;;;;;5079116;28;20390;-79
2021/12/02 12:11:18;;;;;;;1.55;0.60;;;2.70;99.90;;;;;;5078597;28;20044;-86
2021/12/02 12:13:49;;;;;;;1.75;0.60;;;3.10;99.90;;;;;;5069627;28;20067;-81
2021/12/02 12:16:27;;;;;;;1.58;0.70;;;2.90;99.90;;;;;;5078625;28;20131;-85
2021/12/02 12:18:55;;;;;;;1.58;0.70;;;2.70;99.90;;;;;;5075854;28;20127;-83
2021/12/02 12:21:41;;;;;;;1.35;0.57;;;2.70;99.90;;;;;;5076712;28;20098;-82
2021/12/02 12:24:08;;;;;;;0.95;0.52;;;2.70;99.90;;;;;;5076159;28;20048;-80
2021/12/02 12:26:41;;;;;;;1.40;0.63;;;3.00;99.90;;;;;;5077228;28;20432;-84
2021/12/02 12:29:09;;;;;;;1.52;0.60;;;3.30;99.90;;;;;;5077022;28;20078;-82
2021/12/02 12:32:04;;;;;;;0.98;0.60;;;2.70;99.90;;;;;;5076414;28;20140;-82
2021/12/02 12:36:57;;;;;;;7.88;6.95;;;2.90;99.90;;;;;;5075759;28;20045;-81
2021/12/02 12:39:29;;;;;;;1.40;0.68;;;2.40;99.90;;;;;;5076095;28;20056;-83
2021/12/02 12:42:15;;;;;;;1.70;0.70;;;2.30;99.90;;;;;;5075430;28;20044;-82
2021/12/02 12:44:54;;;;;;;1.85;0.70;;;2.30;99.90;;;;;;5062223;28;20044;-81
2021/12/02 12:47:47;;;;;;;1.52;0.70;;;2.30;99.90;;;;;;5081393;28;20074;-85
2021/12/02 12:50:25;;;;;;;1.52;0.80;;;2.50;99.90;;;;;;5079901;28;20060;-83
2021/12/02 12:53:15;;;;;;;2.30;1.02;;;2.50;99.90;;;;;;5082531;28;20045;-78
2021/12/02 12:56:00;;;;;;;2.60;1.42;;;2.90;99.90;;;;;;5089516;28;20188;-85
2021/12/02 12:58:29;;;;;;;3.17;1.58;;;2.50;99.90;;;;;;5081311;28;20096;-80
2021/12/02 13:01:03;;;;;;;3.22;1.90;;;2.50;99.90;;;;;;5078538;28;20067;-84
2021/12/02 13:03:45;;;;;;;3.45;1.88;;;2.40;99.90;;;;;;5077545;28;20127;-81
2021/12/02 13:06:24;;;;;;;4.55;2.53;;;2.40;99.90;;;;;;5058656;28;20080;-83
2021/12/02 13:08:55;;;;;;;4.57;2.80;;;2.70;99.90;;;;;;5076674;28;20045;-82
2021/12/02 13:11:26;;;;;;;5.18;2.80;;;2.40;99.90;;;;;;5076751;28;20074;-81
2021/12/02 13:13:55;;;;;;;5.82;2.88;;;3.10;99.90;;;;;;5076907;28;20088;-79
2021/12/02 13:16:31;;;;;;;5.80;2.88;;;3.40;99.90;;;;;;5074723;28;20049;-80
2021/12/02 13:19:01;;;;;;;;;;;2.30;99.90;;;;;;5075554;28;20044;-80
2021/12/02 13:21:31;;;;;;;4.22;2.47;;;2.10;99.90;;;;;;5074570;28;20349;-79
2021/12/02 13:24:11;;;;;;;3.85;2.50;;;2.10;99.90;;;;;;5073866;28;20060;-79
2021/12/02 13:26:43;;;;;;;3.50;2.00;;;2.10;99.90;;;;;;5075612;28;20045;-81
2021/12/02 13:29:14;;;;;;;2.90;1.85;;;3.00;99.90;;;;;;5073728;28;20043;-81